createdAt,value
2022-10-15T00:01:32.106Z,20.80
2022-10-15T00:04:03.922Z,18.27
2022-10-15T00:06:31.898Z,19.52
2022-10-15T00:08:59.059Z,17.60
2022-10-15T00:11:28.559Z,17.95
2022-10-15T00:14:00.791Z,19.17
2022-10-15T00:16:29.717Z,17.00
2022-10-15T00:18:59.188Z,20.95
2022-10-15T00:21:26.685Z,20.15
2022-10-15T00:23:54.252Z,19.63
2022-10-15T00:26:28.468Z,18.95
2022-10-15T00:29:00.408Z,18.17
2022-10-15T00:31:30.568Z,17.38
2022-10-15T00:34:01.019Z,17.27
2022-10-15T00:36:34.083Z,17.88
2022-10-15T00:39:02.375Z,16.08
2022-10-15T00:41:36.967Z,17.58
2022-10-15T00:44:24.172Z,18.38
2022-10-15T00:47:04.996Z,19.55
2022-10-15T00:49:39.201Z,20.38
2022-10-15T00:52:50.867Z,18.27
2022-10-15T00:55:32.705Z,17.13
2022-10-15T00:58:14.144Z,18.17
2022-10-15T01:00:42.472Z,17.60
2022-10-15T01:03:10.230Z,20.92
2022-10-15T01:05:39.299Z,19.92
2022-10-15T01:08:11.320Z,19.65
2022-10-15T01:11:11.793Z,19.55
2022-10-15T01:14:13.334Z,20.60
2022-10-15T01:17:14.541Z,18.63
2022-10-15T01:20:12.886Z,19.17
2022-10-15T01:23:02.780Z,20.00
2022-10-15T01:25:44.516Z,20.25
2022-10-15T01:28:20.790Z,19.73
2022-10-15T01:31:02.639Z,19.92
2022-10-15T01:33:54.767Z,17.92
2022-10-15T01:37:12.220Z,18.48
2022-10-15T01:39:56.256Z,18.58
2022-10-15T01:42:39.134Z,17.33
2022-10-15T01:45:12.978Z,18.33
2022-10-15T01:48:05.653Z,17.38
2022-10-15T01:50:37.812Z,17.83
2022-10-15T01:53:08.137Z,18.05
2022-10-15T01:55:37.853Z,18.45
2022-10-15T01:58:06.291Z,18.40
2022-10-15T02:00:33.604Z,18.08
2022-10-15T02:03:04.660Z,18.23
2022-10-15T02:05:51.938Z,18.30
2022-10-15T02:09:15.638Z,21.25
2022-10-15T02:12:53.139Z,19.05
2022-10-15T02:15:31.637Z,20.85
2022-10-15T02:18:39.781Z,20.63
2022-10-15T02:21:14.365Z,22.10
2022-10-15T02:23:56.791Z,21.67
2022-10-15T02:26:30.522Z,19.45
2022-10-15T02:29:01.159Z,19.00
2022-10-15T02:31:33.436Z,17.35
2022-10-15T02:34:07.843Z,19.50
2022-10-15T02:36:41.422Z,17.95
2022-10-15T02:39:13.207Z,18.65
2022-10-15T02:41:40.721Z,17.13
2022-10-15T02:44:10.702Z,17.33
2022-10-15T02:46:38.337Z,17.73
2022-10-15T02:49:06.239Z,18.48
2022-10-15T02:51:35.476Z,19.13
2022-10-15T02:54:05.219Z,16.35
2022-10-15T02:56:32.648Z,16.90
2022-10-15T02:59:00.183Z,17.40
2022-10-15T03:01:27.619Z,16.10
2022-10-15T03:03:55.038Z,17.42
2022-10-15T03:06:22.436Z,18.40
2022-10-15T03:08:50.604Z,17.10
2022-10-15T03:11:18.040Z,17.65
2022-10-15T03:13:45.324Z,18.50
2022-10-15T03:16:13.393Z,17.45
2022-10-15T03:18:44.366Z,19.15
2022-10-15T03:21:11.788Z,17.67
2022-10-15T03:23:40.008Z,19.52
2022-10-15T03:26:14.062Z,18.77
2022-10-15T03:28:42.023Z,18.02
2022-10-15T03:31:09.787Z,19.20
2022-10-15T03:33:37.022Z,18.25
2022-10-15T03:36:04.752Z,17.35
2022-10-15T03:38:32.689Z,18.38
2022-10-15T03:41:00.378Z,18.10
2022-10-15T03:43:37.552Z,19.15
2022-10-15T03:46:08.504Z,18.50
2022-10-15T03:48:40.273Z,18.92
2022-10-15T03:51:07.562Z,18.13
2022-10-15T03:53:35.394Z,17.77
2022-10-15T03:56:06.866Z,16.80
2022-10-15T03:58:38.036Z,17.00
2022-10-15T04:01:17.136Z,17.17
2022-10-15T04:03:44.949Z,16.70
2022-10-15T04:06:14.018Z,16.17
2022-10-15T04:08:41.416Z,16.65
2022-10-15T04:11:22.014Z,14.73
2022-10-15T04:13:58.884Z,15.18
2022-10-15T04:16:26.279Z,14.40
2022-10-15T04:18:53.656Z,14.68
2022-10-15T04:21:21.618Z,14.48
2022-10-15T04:23:54.724Z,12.80
2022-10-15T04:26:27.512Z,13.05
2022-10-15T04:28:54.816Z,13.50
2022-10-15T04:31:24.000Z,13.80
2022-10-15T04:33:51.292Z,13.55
2022-10-15T04:36:18.740Z,12.32
2022-10-15T04:38:52.846Z,13.50
2022-10-15T04:41:30.788Z,13.07
2022-10-15T04:44:05.227Z,12.75
2022-10-15T04:46:33.225Z,11.27
2022-10-15T04:49:08.349Z,11.65
2022-10-15T04:51:35.808Z,11.35
2022-10-15T04:54:28.893Z,11.98
2022-10-15T04:56:59.248Z,12.43
2022-10-15T04:59:27.874Z,12.52
2022-10-15T05:02:17.882Z,12.95
2022-10-15T05:04:49.562Z,12.57
2022-10-15T05:07:17.003Z,13.18
2022-10-15T05:09:46.501Z,14.10
2022-10-15T05:12:14.607Z,12.02
2022-10-15T05:14:42.044Z,12.73
2022-10-15T05:17:19.062Z,12.27
2022-10-15T05:19:46.483Z,11.63
2022-10-15T05:22:21.239Z,11.90
2022-10-15T05:24:59.872Z,13.07
2022-10-15T05:27:36.157Z,11.45
2022-10-15T05:30:05.962Z,12.38
2022-10-15T05:32:42.661Z,12.18
2022-10-15T05:35:12.604Z,11.63
2022-10-15T05:38:04.747Z,11.57
2022-10-15T05:40:32.077Z,11.27
2022-10-15T05:43:07.989Z,10.25
2022-10-15T05:45:35.187Z,10.90
2022-10-15T05:48:05.474Z,11.30
2022-10-15T05:50:33.144Z,10.80
2022-10-15T05:53:02.643Z,9.60
2022-10-15T05:55:42.721Z,10.82
2022-10-15T05:58:10.022Z,11.00
2022-10-15T06:00:39.567Z,11.52
2022-10-15T06:03:06.770Z,9.90
2022-10-15T06:05:34.090Z,9.98
2022-10-15T06:08:01.290Z,9.40
2022-10-15T06:10:28.639Z,9.38
2022-10-15T06:12:55.989Z,9.10
2022-10-15T06:15:23.213Z,9.07
2022-10-15T06:17:54.331Z,9.80
2022-10-15T06:20:21.689Z,9.75
2022-10-15T06:22:49.025Z,8.25
2022-10-15T06:25:16.770Z,9.85
2022-10-15T06:27:44.008Z,9.07
2022-10-15T06:30:11.661Z,8.52
2022-10-15T06:32:38.943Z,9.98
2022-10-15T06:35:06.845Z,8.73
2022-10-15T06:37:34.440Z,9.32
2022-10-15T06:40:01.697Z,9.25
2022-10-15T06:42:28.945Z,7.78
2022-10-15T06:44:56.209Z,8.55
2022-10-15T06:47:23.571Z,9.02
2022-10-15T06:49:50.944Z,8.32
2022-10-15T06:52:18.194Z,7.65
2022-10-15T06:54:45.464Z,9.23
2022-10-15T06:57:14.271Z,8.60
2022-10-15T06:59:41.786Z,7.90
2022-10-15T07:02:14.283Z,8.07
2022-10-15T07:04:41.665Z,8.07
2022-10-15T07:07:09.342Z,7.75
2022-10-15T07:09:36.925Z,6.90
2022-10-15T07:12:05.075Z,8.13
2022-10-15T07:14:32.628Z,8.50
2022-10-15T07:17:00.378Z,8.35
2022-10-15T07:19:29.205Z,7.90
2022-10-15T07:21:57.013Z,7.40
2022-10-15T07:24:24.410Z,7.43
2022-10-15T07:26:51.729Z,9.30
2022-10-15T07:29:19.069Z,7.80
2022-10-15T07:31:47.095Z,7.70
2022-10-15T07:34:17.216Z,8.02
2022-10-15T07:36:44.442Z,8.30
2022-10-15T07:39:11.953Z,8.77
2022-10-15T07:41:39.460Z,8.80
2022-10-15T07:44:06.976Z,8.30
2022-10-15T07:46:34.559Z,7.57
2022-10-15T07:49:01.951Z,7.10
2022-10-15T07:51:29.209Z,7.20
2022-10-15T07:53:56.797Z,6.93
2022-10-15T07:56:24.176Z,6.93
2022-10-15T07:58:54.353Z,7.57
2022-10-15T08:01:22.209Z,6.90
2022-10-15T08:03:49.558Z,5.93
2022-10-15T08:06:17.456Z,6.65
2022-10-15T08:08:45.106Z,6.63
2022-10-15T08:11:15.833Z,7.45
2022-10-15T08:13:43.858Z,5.63
2022-10-15T08:16:14.372Z,5.43
2022-10-15T08:18:42.968Z,6.20
2022-10-15T08:21:11.918Z,5.32
2022-10-15T08:23:39.185Z,5.90
2022-10-15T08:26:06.708Z,6.65
2022-10-15T08:28:35.706Z,5.80
2022-10-15T08:31:05.874Z,5.47
2022-10-15T08:33:36.117Z,5.70
2022-10-15T08:36:06.556Z,5.63
2022-10-15T08:38:35.381Z,5.07
2022-10-15T08:41:12.695Z,4.78
2022-10-15T08:43:46.814Z,5.30
2022-10-15T08:46:30.194Z,4.45
2022-10-15T08:49:00.932Z,6.13
2022-10-15T08:51:53.585Z,5.50
2022-10-15T08:54:20.950Z,5.03
2022-10-15T08:56:54.934Z,3.92
2022-10-15T08:59:46.632Z,4.38
2022-10-15T09:02:29.252Z,4.97
2022-10-15T09:05:50.140Z,5.22
2022-10-15T09:08:29.017Z,4.60
2022-10-15T09:11:19.575Z,4.25
2022-10-15T09:16:29.470Z,4.88
2022-10-15T09:18:58.661Z,5.30
2022-10-15T09:21:26.802Z,4.05
2022-10-15T09:24:02.620Z,4.50
2022-10-15T09:27:24.433Z,4.28
2022-10-15T09:30:25.789Z,4.40
2022-10-15T09:33:07.057Z,4.97
2022-10-15T09:35:48.154Z,5.65
2022-10-15T09:38:45.046Z,4.53
2022-10-15T09:41:33.221Z,5.72
2022-10-15T09:44:03.655Z,4.40
2022-10-15T09:46:47.983Z,4.63
2022-10-15T09:49:26.001Z,4.45
2022-10-15T09:52:07.618Z,4.22
2022-10-15T09:57:20.055Z,4.45
2022-10-15T09:59:56.902Z,4.78
2022-10-15T10:02:26.104Z,4.32
2022-10-15T10:04:54.416Z,4.70
2022-10-15T10:07:38.308Z,4.22
2022-10-15T10:10:28.716Z,4.05
2022-10-15T10:12:57.173Z,4.55
2022-10-15T10:15:42.864Z,5.10
2022-10-15T10:18:32.170Z,5.13
2022-10-15T10:21:03.767Z,4.80
2022-10-15T10:23:35.248Z,5.75
2022-10-15T10:26:11.072Z,4.35
2022-10-15T10:28:53.770Z,4.45
2022-10-15T10:31:42.530Z,3.88
2022-10-15T10:34:21.015Z,4.45
2022-10-15T10:36:53.244Z,4.70
2022-10-15T10:42:07.401Z,4.28
2022-10-15T10:44:46.558Z,4.53
2022-10-15T10:47:26.052Z,4.82
2022-10-15T10:49:58.978Z,4.40
2022-10-15T10:52:34.371Z,4.15
2022-10-15T10:55:18.522Z,4.28
2022-10-15T10:57:50.958Z,4.68
2022-10-15T11:00:41.394Z,5.03
2022-10-15T11:03:33.225Z,4.72
2022-10-15T11:06:26.037Z,4.82
2022-10-15T11:09:36.473Z,5.05
2022-10-15T11:12:12.356Z,5.05
2022-10-15T11:14:48.482Z,4.95
2022-10-15T11:17:52.386Z,4.88
2022-10-15T11:20:59.702Z,4.40
2022-10-15T11:23:55.923Z,4.25
2022-10-15T11:27:11.449Z,4.25
2022-10-15T11:29:58.181Z,3.85
2022-10-15T11:32:47.917Z,4.63
2022-10-15T11:35:51.984Z,4.35
2022-10-15T11:40:58.749Z,4.07
2022-10-15T11:44:09.464Z,3.70
2022-10-15T11:50:01.441Z,4.53
2022-10-15T11:52:49.095Z,4.32
2022-10-15T11:55:57.523Z,4.95
2022-10-15T11:58:47.565Z,4.25
2022-10-15T12:01:37.474Z,4.72
2022-10-15T12:04:44.254Z,4.68
2022-10-15T12:07:33.373Z,4.35
2022-10-15T12:10:24.371Z,4.65
2022-10-15T12:13:18.770Z,4.05
2022-10-15T12:16:35.188Z,3.78
2022-10-15T12:19:25.512Z,4.22
2022-10-15T12:21:56.795Z,4.28
2022-10-15T12:24:47.567Z,3.80
2022-10-15T12:27:19.965Z,4.05
2022-10-15T12:30:13.975Z,3.92
2022-10-15T12:32:48.737Z,4.38
2022-10-15T12:35:16.264Z,3.92
2022-10-15T12:37:47.247Z,4.30
2022-10-15T12:40:23.606Z,4.70
2022-10-15T12:43:03.563Z,4.00
2022-10-15T12:45:40.446Z,4.10
2022-10-15T12:48:16.779Z,4.03
2022-10-15T12:50:46.936Z,3.60
2022-10-15T12:53:28.635Z,3.83
2022-10-15T12:56:40.361Z,3.55
2022-10-15T12:59:51.087Z,3.67
2022-10-15T13:02:46.938Z,2.97
2022-10-15T13:05:34.374Z,3.50
2022-10-15T13:08:13.618Z,4.45
2022-10-15T13:10:51.854Z,3.65
2022-10-15T13:13:33.959Z,5.22
2022-10-15T13:16:09.618Z,3.78
2022-10-15T13:18:37.586Z,3.53
2022-10-15T13:21:06.699Z,3.55
2022-10-15T13:23:36.386Z,3.63
2022-10-15T13:26:12.852Z,4.00
2022-10-15T13:28:42.406Z,4.15
2022-10-15T13:31:26.062Z,4.68
2022-10-15T13:34:08.780Z,4.20
2022-10-15T13:36:36.516Z,4.00
2022-10-15T13:39:08.620Z,4.07
2022-10-15T13:41:40.492Z,3.83
2022-10-15T13:44:24.691Z,4.45
2022-10-15T13:46:52.207Z,4.68
2022-10-15T13:49:21.478Z,3.53
2022-10-15T13:51:53.315Z,4.40
2022-10-15T13:54:31.713Z,3.53
2022-10-15T13:57:02.182Z,3.25
2022-10-15T14:02:02.209Z,4.13
2022-10-15T14:04:32.834Z,3.58
2022-10-15T14:07:23.104Z,3.83
2022-10-15T14:12:17.996Z,3.03
2022-10-15T14:14:48.211Z,3.20
2022-10-15T14:17:26.566Z,3.88
2022-10-15T14:20:27.195Z,3.50
2022-10-15T14:22:54.145Z,3.40
2022-10-15T14:25:25.324Z,3.58
2022-10-15T14:27:53.132Z,3.72
2022-10-15T14:30:34.155Z,3.72
2022-10-15T14:33:01.470Z,3.50
2022-10-15T14:35:35.558Z,3.13
2022-10-15T14:38:08.883Z,3.33
2022-10-15T14:40:36.522Z,3.33
2022-10-15T14:43:13.673Z,3.60
2022-10-15T14:45:55.689Z,2.83
2022-10-15T14:48:42.841Z,3.08
2022-10-15T14:51:23.283Z,3.53
2022-10-15T14:53:53.004Z,4.35
2022-10-15T14:56:30.018Z,4.10
2022-10-15T14:58:58.710Z,2.95
2022-10-15T15:01:27.695Z,3.67
2022-10-15T15:03:57.170Z,2.50
2022-10-15T15:06:24.653Z,3.60
2022-10-15T15:08:51.824Z,3.38
2022-10-15T15:11:24.215Z,3.28
2022-10-15T15:13:52.602Z,3.80
2022-10-15T15:16:20.234Z,2.85
2022-10-15T15:18:48.934Z,3.70
2022-10-15T15:21:22.355Z,3.78
2022-10-15T15:23:50.008Z,3.72
2022-10-15T15:26:17.224Z,3.63
2022-10-15T15:28:44.587Z,3.60
2022-10-15T15:31:18.578Z,4.25
2022-10-15T15:33:46.150Z,3.50
2022-10-15T15:36:20.712Z,3.80
2022-10-15T15:38:51.789Z,3.28
2022-10-15T15:41:22.591Z,3.35
2022-10-15T15:43:50.699Z,3.83
2022-10-15T15:46:18.238Z,3.10
2022-10-15T15:48:45.467Z,3.13
2022-10-15T15:51:41.902Z,4.22
2022-10-15T15:54:10.576Z,2.90
2022-10-15T15:56:39.930Z,2.95
2022-10-15T15:59:07.326Z,3.90
2022-10-15T16:01:34.622Z,3.63
2022-10-15T16:04:01.962Z,3.35
2022-10-15T16:06:29.321Z,3.55
2022-10-15T16:08:59.541Z,3.40
2022-10-15T16:11:27.137Z,3.28
2022-10-15T16:13:54.455Z,2.90
2022-10-15T16:16:21.715Z,3.53
2022-10-15T16:18:49.046Z,3.05
2022-10-15T16:21:25.869Z,3.08
2022-10-15T16:23:53.779Z,3.55
2022-10-15T16:26:21.322Z,3.60
2022-10-15T16:28:48.736Z,3.72
2022-10-15T16:31:32.468Z,3.55
2022-10-15T16:33:59.854Z,3.60
2022-10-15T16:36:27.093Z,3.40
2022-10-15T16:38:54.412Z,3.38
2022-10-15T16:41:21.971Z,3.75
2022-10-15T16:43:49.553Z,4.15
2022-10-15T16:46:19.021Z,3.55
2022-10-15T16:48:51.678Z,4.40
2022-10-15T16:51:19.109Z,3.50
2022-10-15T16:53:47.594Z,3.75
2022-10-15T16:56:25.686Z,3.83
2022-10-15T16:58:53.566Z,4.65
2022-10-15T17:01:27.759Z,4.32
2022-10-15T17:03:55.504Z,4.60
2022-10-15T17:06:28.247Z,5.07
2022-10-15T17:08:58.601Z,5.30
2022-10-15T17:11:29.519Z,3.53
2022-10-15T17:14:00.545Z,3.83
2022-10-15T17:16:31.453Z,4.70
2022-10-15T17:18:59.212Z,4.03
2022-10-15T17:21:29.834Z,4.10
2022-10-15T17:24:01.043Z,4.00
2022-10-15T17:26:39.112Z,4.50
2022-10-15T17:29:10.301Z,4.20
2022-10-15T17:31:38.678Z,3.10
2022-10-15T17:34:09.899Z,3.65
2022-10-15T17:36:45.178Z,3.65
2022-10-15T17:39:16.091Z,4.40
2022-10-15T17:41:44.207Z,3.70
2022-10-15T17:44:11.944Z,4.28
2022-10-15T17:46:40.350Z,3.80
2022-10-15T17:49:09.823Z,3.97
2022-10-15T17:51:38.231Z,3.58
2022-10-15T17:54:06.825Z,4.50
2022-10-15T17:56:39.460Z,3.85
2022-10-15T17:59:10.801Z,4.13
2022-10-15T18:01:59.220Z,3.92
2022-10-15T18:04:30.041Z,4.10
2022-10-15T18:06:57.708Z,3.33
2022-10-15T18:09:27.079Z,4.25
2022-10-15T18:12:00.658Z,5.97
2022-10-15T18:14:29.532Z,4.10
2022-10-15T18:16:57.197Z,4.15
2022-10-15T18:19:26.586Z,4.75
2022-10-15T18:21:55.718Z,4.83
2022-10-15T18:24:24.274Z,6.75
2022-10-15T18:26:52.261Z,5.15
2022-10-15T18:29:20.463Z,5.38
2022-10-15T18:31:48.864Z,4.95
2022-10-15T18:34:17.549Z,4.75
2022-10-15T18:36:45.060Z,4.18
2022-10-15T18:39:12.311Z,4.25
2022-10-15T18:41:41.189Z,4.97
2022-10-15T18:44:16.094Z,5.10
2022-10-15T18:46:45.724Z,4.93
2022-10-15T18:49:15.400Z,5.13
2022-10-15T18:51:46.226Z,6.20
2022-10-15T18:54:13.825Z,4.38
2022-10-15T18:56:41.570Z,4.57
2022-10-15T18:59:08.985Z,4.82
2022-10-15T19:01:39.681Z,4.85
2022-10-15T19:04:14.258Z,4.93
2022-10-15T19:06:45.238Z,4.72
2022-10-15T19:09:19.576Z,4.95
2022-10-15T19:11:49.907Z,5.30
2022-10-15T19:14:18.120Z,5.22
2022-10-15T19:16:46.982Z,4.07
2022-10-15T19:19:18.799Z,5.45
2022-10-15T19:21:48.606Z,5.18
2022-10-15T19:24:19.401Z,4.53
2022-10-15T19:26:47.721Z,5.05
2022-10-15T19:29:15.381Z,4.05
2022-10-15T19:31:47.073Z,5.35
2022-10-15T19:34:15.050Z,4.70
2022-10-15T19:36:48.248Z,4.00
2022-10-15T19:39:22.378Z,4.28
2022-10-15T19:41:51.591Z,4.80
2022-10-15T19:44:25.690Z,4.47
2022-10-15T19:46:57.810Z,5.03
2022-10-15T19:49:25.729Z,4.78
2022-10-15T19:51:53.358Z,5.05
2022-10-15T19:54:20.750Z,4.50
2022-10-15T19:56:48.205Z,5.50
2022-10-15T19:59:16.948Z,6.47
2022-10-15T20:01:44.169Z,4.65
2022-10-15T20:04:11.661Z,4.60
2022-10-15T20:06:39.156Z,5.65
2022-10-15T20:09:07.587Z,4.25
2022-10-15T20:11:36.297Z,5.20
2022-10-15T20:14:04.302Z,4.68
2022-10-15T20:16:33.422Z,5.85
2022-10-15T20:19:03.995Z,4.35
2022-10-15T20:21:32.235Z,4.10
2022-10-15T20:24:04.437Z,4.35
2022-10-15T20:26:32.640Z,4.50
2022-10-15T20:29:00.353Z,4.78
2022-10-15T20:31:32.887Z,4.40
2022-10-15T20:34:01.694Z,4.63
2022-10-15T20:36:29.071Z,4.38
2022-10-15T20:38:57.551Z,4.45
2022-10-15T20:41:25.009Z,4.35
2022-10-15T20:43:56.346Z,3.80
2022-10-15T20:46:35.461Z,4.25
2022-10-15T20:49:15.056Z,3.95
2022-10-15T20:51:45.121Z,4.80
2022-10-15T20:54:14.182Z,4.75
2022-10-15T20:56:42.674Z,5.25
2022-10-15T20:59:09.975Z,4.05
2022-10-15T21:01:37.667Z,4.13
2022-10-15T21:04:06.298Z,4.38
2022-10-15T21:06:33.785Z,5.03
2022-10-15T21:09:01.193Z,3.97
2022-10-15T21:11:28.810Z,4.25
2022-10-15T21:13:56.092Z,4.20
2022-10-15T21:16:27.359Z,4.63
2022-10-15T21:18:56.064Z,4.70
2022-10-15T21:21:23.424Z,4.53
2022-10-15T21:23:50.813Z,5.25
2022-10-15T21:26:19.626Z,4.60
2022-10-15T21:28:47.368Z,4.38
2022-10-15T21:31:17.401Z,5.03
2022-10-15T21:33:46.200Z,4.88
2022-10-15T21:36:24.388Z,6.05
2022-10-15T21:39:01.224Z,4.88
2022-10-15T21:41:31.352Z,4.95
2022-10-15T21:44:01.001Z,5.35
2022-10-15T21:46:28.521Z,4.33
2022-10-15T21:48:55.764Z,5.47
2022-10-15T21:51:27.059Z,4.78
2022-10-15T21:53:55.618Z,5.13
2022-10-15T21:56:23.813Z,4.55
2022-10-15T21:58:52.372Z,5.30
2022-10-15T22:01:23.938Z,4.40
2022-10-15T22:03:57.242Z,4.72
2022-10-15T22:06:24.750Z,4.60
2022-10-15T22:08:52.576Z,5.03
2022-10-15T22:11:23.075Z,5.53
2022-10-15T22:16:22.977Z,5.22
2022-10-15T22:18:50.617Z,5.00
2022-10-15T22:21:19.559Z,5.05
2022-10-15T22:23:50.434Z,5.32
2022-10-15T22:26:19.951Z,5.38
2022-10-15T22:28:48.003Z,4.85
2022-10-15T22:31:17.162Z,4.25
2022-10-15T22:33:45.828Z,4.70
2022-10-15T22:36:22.124Z,4.57
2022-10-15T22:38:53.840Z,5.43
2022-10-15T22:41:21.264Z,4.40
2022-10-15T22:43:48.685Z,4.50
2022-10-15T22:46:16.310Z,3.97
2022-10-15T22:48:43.838Z,5.10
2022-10-15T22:51:14.039Z,3.90
2022-10-15T22:53:41.647Z,4.50
2022-10-15T22:56:17.156Z,4.25
2022-10-15T22:58:45.655Z,3.90
2022-10-15T23:01:21.849Z,3.88
2022-10-15T23:03:52.292Z,4.30
2022-10-15T23:06:20.952Z,4.70
2022-10-15T23:08:49.132Z,3.50
2022-10-15T23:11:24.164Z,4.95
2022-10-15T23:13:58.792Z,4.35
2022-10-15T23:16:30.549Z,4.25
2022-10-15T23:19:01.744Z,4.70
2022-10-15T23:21:45.433Z,4.88
2022-10-15T23:24:13.675Z,4.30
2022-10-15T23:26:41.700Z,4.80
2022-10-15T23:29:17.074Z,4.68
2022-10-15T23:31:45.045Z,4.35
2022-10-15T23:34:20.149Z,4.20
2022-10-15T23:36:48.673Z,4.20
2022-10-15T23:39:19.545Z,4.35
2022-10-15T23:41:46.801Z,4.40
2022-10-15T23:44:14.122Z,4.72
2022-10-15T23:46:41.742Z,4.00
2022-10-15T23:49:09.996Z,5.88
2022-10-15T23:51:38.171Z,4.55
2022-10-15T23:54:17.811Z,4.78
2022-10-15T23:56:47.072Z,4.50
2022-10-15T23:59:15.456Z,4.55
